Time;durP1;ratioP1;P1;durP2;ratioP2;P2;SDS_P1;SDS_P2;PMS_P1;PMS_P2;Temp;Humidity;BMP_temperature;BMP_pressure;BME280_temperature;BME280_humidity;BME280_pressure;Samples;Min_cycle;Max_cycle;Signal;HPM_P1;HPM_P2
2022/10/31 00:02:05;;;;;;;;;;;;;;;12.56;100.00;100440.37;4453770;32;34885;-77
2022/10/31 00:04:51;;;;;;;;;;;;;;;12.22;100.00;100446.22;4448671;32;34042;-77
2022/10/31 00:07:37;;;;;;;;;;;;;;;12.44;100.00;100453.81;4451182;32;34886;-76
2022/10/31 00:10:25;;;;;;;;;;;;;;;12.09;100.00;100458.78;4455111;32;35321;-77
2022/10/31 00:13:11;;;;;;;;;;;;;;;12.76;100.00;100461.16;4448296;32;34820;-77
2022/10/31 00:15:57;;;;;;;;;;;;;;;13.52;100.00;100454.31;4452851;32;32700;-77
2022/10/31 00:18:43;;;;;;;;;;;;;;;13.78;100.00;100454.56;4465057;32;35591;-77
2022/10/31 00:21:30;;;;;;;;;;;;;;;13.86;100.00;100454.63;4451927;32;35786;-77
2022/10/31 00:24:16;;;;;;;;;;;;;;;14.07;100.00;100445.84;4432135;32;34826;-77
2022/10/31 00:27:03;;;;;;;;;;;;;;;13.90;100.00;100439.09;4449333;32;34069;-77
2022/10/31 00:29:49;;;;;;;;;;;;;;;14.17;100.00;100435.38;4465785;32;35767;-77
2022/10/31 00:32:35;;;;;;;;;;;;;;;14.21;100.00;100438.31;4463448;32;34788;-77
2022/10/31 00:35:21;;;;;;;;;;;;;;;13.80;100.00;100433.81;4465121;32;35612;-77
2022/10/31 00:38:08;;;;;;;;;;;;;;;13.55;100.00;100427.00;4453565;32;35032;-77
2022/10/31 00:40:54;;;;;;;;;;;;;;;12.00;100.00;100440.56;4442179;32;34920;-77
2022/10/31 00:43:41;;;;;;;;;;;;;;;12.33;100.00;100431.19;4453327;32;36175;-76
2022/10/31 00:46:27;;;;;;;;;;;;;;;12.74;100.00;100435.06;4453647;32;35732;-76
2022/10/31 00:49:14;;;;;;;;;;;;;;;12.87;100.00;100428.75;4465346;32;35510;-76
2022/10/31 00:52:00;;;;;;;;;;;;;;;13.58;100.00;100426.38;4463588;32;35032;-76
2022/10/31 00:54:48;;;;;;;;;;;;;;;14.01;100.00;100416.78;4452070;32;36025;-77
2022/10/31 00:57:35;;;;;;;;;;;;;;;13.82;100.00;100412.28;4453643;32;33568;-77
2022/10/31 01:00:22;;;;;;;;;;;;;;;13.86;100.00;100421.56;4453264;32;34071;-77
2022/10/31 01:03:08;;;;;;;;;;;;;;;14.10;100.00;100429.47;4452596;32;34945;-77
2022/10/31 01:06:05;;;;;;;;;;;;;;;14.20;100.00;100420.13;4465343;32;35188;-77
2022/10/31 01:08:52;;;;;;;;;;;;;;;14.37;100.00;100427.66;4453538;32;34554;-77
2022/10/31 01:11:39;;;;;;;;;;;;;;;13.86;100.00;100420.72;4464613;32;34883;-76
2022/10/31 01:14:25;;;;;;;;;;;;;;;12.76;100.00;100419.09;4464153;32;34407;-77
2022/10/31 01:17:15;;;;;;;;;;;;;;;13.30;100.00;100425.66;4453337;32;34521;-77
2022/10/31 01:20:04;;;;;;;;;;;;;;;12.80;100.00;100425.59;4465566;32;33560;-76
2022/10/31 01:22:50;;;;;;;;;;;;;;;12.52;100.00;100414.62;4442895;32;33785;-77
2022/10/31 01:25:37;;;;;;;;;;;;;;;12.80;100.00;100417.34;4452977;32;34646;-77
2022/10/31 01:28:23;;;;;;;;;;;;;;;13.63;100.00;100407.00;4464509;32;36387;-77
2022/10/31 01:31:09;;;;;;;;;;;;;;;13.42;100.00;100416.84;4453424;32;35699;-76
2022/10/31 01:33:55;;;;;;;;;;;;;;;13.04;100.00;100415.19;4465283;32;34881;-76
2022/10/31 01:36:41;;;;;;;;;;;;;;;13.82;100.00;100414.22;4453223;32;35790;-76
2022/10/31 01:39:30;;;;;;;;;;;;;;;14.04;100.00;100411.47;4464733;32;35887;-77
2022/10/31 01:42:21;;;;;;;;;;;;;;;13.91;100.00;100410.41;4464210;32;35643;-76
2022/10/31 01:45:09;;;;;;;;;;;;;;;14.18;100.00;100409.44;4453024;32;34890;-76
2022/10/31 01:47:55;;;;;;;;;;;;;;;13.45;100.00;100406.03;4453298;32;34172;-76
2022/10/31 01:50:42;;;;;;;;;;;;;;;12.77;100.00;100407.75;4453200;32;35181;-76
2022/10/31 01:53:28;;;;;;;;;;;;;;;13.55;100.00;100409.66;4453095;32;34895;-77
2022/10/31 01:56:14;;;;;;;;;;;;;;;13.43;100.00;100413.78;4463192;32;34126;-77
2022/10/31 01:59:01;;;;;;;;;;;;;;;13.61;100.00;100403.72;4441607;32;34665;-77
2022/10/31 02:01:47;;;;;;;;;;;;;;;13.83;100.00;100405.66;4452004;32;35178;-77
2022/10/31 02:04:35;;;;;;;;;;;;;;;14.23;100.00;100399.37;4451295;32;35737;-76
2022/10/31 02:07:36;;;;;;;;;;;;;;;13.98;100.00;100401.72;4453130;32;34051;-76
2022/10/31 02:10:23;;;;;;;;;;;;;;;13.92;100.00;100398.28;4452722;32;35751;-76
2022/10/31 02:13:10;;;;;;;;;;;;;;;13.32;100.00;100404.16;4452402;32;36140;-77
2022/10/31 02:15:58;;;;;;;;;;;;;;;12.75;100.00;100398.19;4453229;32;34891;-77
2022/10/31 02:18:44;;;;;;;;;;;;;;;13.27;100.00;100393.25;4463057;32;34088;-77
2022/10/31 02:21:40;;;;;;;;;;;;;;;13.89;100.00;100393.37;4463571;32;34702;-77
2022/10/31 02:24:44;;;;;;;;;;;;;;;14.02;100.00;100393.63;4463277;32;36042;-77
2022/10/31 02:27:46;;;;;;;;;;;;;;;13.85;100.00;100395.12;4464042;32;34589;-77
2022/10/31 02:30:52;;;;;;;;;;;;;;;14.15;100.00;100392.72;4452614;32;34106;-77
2022/10/31 02:33:41;;;;;;;;;;;;;;;14.17;100.00;100396.78;4464520;32;34585;-77
2022/10/31 02:36:38;;;;;;;;;;;;;;;12.48;100.00;100404.53;4452522;32;35204;-76
2022/10/31 02:39:30;;;;;;;;;;;;;;;13.67;100.00;100394.22;4452298;32;35547;-77
2022/10/31 02:42:18;;;;;;;;;;;;;;;13.84;100.00;100396.28;4451670;32;34103;-76
2022/10/31 02:45:10;;;;;;;;;;;;;;;13.30;100.00;100402.81;4450373;32;34694;-77
2022/10/31 02:47:58;;;;;;;;;;;;;;;13.57;100.00;100405.47;4464323;32;35228;-77
2022/10/31 02:50:47;;;;;;;;;;;;;;;13.62;100.00;100399.84;4464384;32;34804;-76
2022/10/31 02:53:33;;;;;;;;;;;;;;;13.54;100.00;100408.03;4462803;32;34031;-76
2022/10/31 02:56:20;;;;;;;;;;;;;;;13.40;100.00;100411.62;4439986;32;35621;-76
2022/10/31 02:59:08;;;;;;;;;;;;;;;13.77;100.00;100409.66;4463829;32;35851;-77
2022/10/31 03:01:57;;;;;;;;;;;;;;;13.68;100.00;100414.28;4451215;32;35682;-77
2022/10/31 03:04:49;;;;;;;;;;;;;;;13.81;100.00;100407.09;4464317;32;35065;-76
2022/10/31 03:07:51;;;;;;;;;;;;;;;13.89;100.00;100409.91;4452264;32;34961;-76
2022/10/31 03:10:46;;;;;;;;;;;;;;;13.64;100.00;100403.09;4451443;32;35103;-77
2022/10/31 03:13:32;;;;;;;;;;;;;;;13.81;100.00;100405.16;4450192;32;34764;-77
2022/10/31 03:16:18;;;;;;;;;;;;;;;12.84;100.00;100407.38;4450734;32;34731;-77
2022/10/31 03:19:09;;;;;;;;;;;;;;;12.86;100.00;100405.09;4463674;32;34653;-77
2022/10/31 03:21:57;;;;;;;;;;;;;;;13.59;100.00;100416.97;4451661;32;34844;-76
2022/10/31 03:24:43;;;;;;;;;;;;;;;13.79;100.00;100415.66;4451763;32;35623;-77
2022/10/31 03:27:30;;;;;;;;;;;;;;;13.58;100.00;100420.06;4453832;32;35065;-77
2022/10/31 03:30:17;;;;;;;;;;;;;;;13.81;100.00;100420.88;4442221;32;34902;-76
2022/10/31 03:33:06;;;;;;;;;;;;;;;13.70;100.00;100412.06;4454031;32;35145;-77
2022/10/31 03:35:53;;;;;;;;;;;;;;;13.97;100.00;100421.28;4466347;32;34926;-77
2022/10/31 03:38:40;;;;;;;;;;;;;;;13.86;100.00;100421.56;4453368;32;34829;-77
2022/10/31 03:41:27;;;;;;;;;;;;;;;14.10;100.00;100414.91;4442887;32;34967;-77
2022/10/31 03:44:15;;;;;;;;;;;;;;;14.16;100.00;100427.41;4453093;32;35278;-77
2022/10/31 03:47:03;;;;;;;;;;;;;;;14.17;100.00;100426.28;4465471;32;34817;-77
2022/10/31 03:49:49;;;;;;;;;;;;;;;14.16;100.00;100422.72;4457793;32;34734;-77
2022/10/31 03:52:47;;;;;;;;;;;;;;;13.97;100.00;100421.28;4468323;32;34405;-76
2022/10/31 03:55:37;;;;;;;;;;;;;;;13.96;100.00;100420.47;4481220;32;35269;-77
2022/10/31 03:58:25;;;;;;;;;;;;;;;13.54;100.00;100432.81;4469760;32;34929;-76
2022/10/31 04:01:13;;;;;;;;;;;;;;;13.03;100.00;100426.47;4469648;32;34103;-76
2022/10/31 04:04:00;;;;;;;;;;;;;;;13.66;100.00;100430.31;4458715;32;34898;-77
2022/10/31 04:06:48;;;;;;;;;;;;;;;13.31;100.00;100432.78;4481675;32;35255;-76
2022/10/31 04:09:35;;;;;;;;;;;;;;;13.71;100.00;100431.00;4466969;32;35595;-77
2022/10/31 04:12:22;;;;;;;;;;;;;;;13.85;100.00;100430.94;4481100;32;33747;-76
2022/10/31 04:15:10;;;;;;;;;;;;;;;14.02;100.00;100429.44;4469683;32;35418;-77
2022/10/31 04:17:58;;;;;;;;;;;;;;;14.00;100.00;100435.25;4453269;32;35410;-77
2022/10/31 04:20:45;;;;;;;;;;;;;;;14.12;100.00;100434.69;4464084;32;34564;-77
2022/10/31 04:23:31;;;;;;;;;;;;;;;13.90;100.00;100438.28;4464265;32;33666;-77
2022/10/31 04:26:18;;;;;;;;;;;;;;;14.10;100.00;100437.75;4465910;32;35718;-76
2022/10/31 04:29:05;;;;;;;;;;;;;;;14.05;100.00;100446.13;4464008;32;35242;-77
2022/10/31 04:31:51;;;;;;;;;;;;;;;13.75;100.00;100447.72;4465549;32;35383;-77
2022/10/31 04:34:37;;;;;;;;;;;;;;;13.46;100.00;100445.38;4466941;32;34018;-76
2022/10/31 04:37:23;;;;;;;;;;;;;;;13.21;100.00;100458.56;4466532;32;35028;-77
2022/10/31 04:40:11;;;;;;;;;;;;;;;13.79;100.00;100456.19;4465876;32;35164;-77
2022/10/31 04:42:59;;;;;;;;;;;;;;;13.49;100.00;100455.78;4465061;32;34765;-77
2022/10/31 04:45:47;;;;;;;;;;;;;;;12.34;100.00;100467.72;4453471;32;34773;-77
2022/10/31 04:48:35;;;;;;;;;;;;;;;13.34;100.00;100459.69;4463486;32;35689;-76
2022/10/31 04:51:25;;;;;;;;;;;;;;;13.48;100.00;100459.66;4465996;32;35137;-76
2022/10/31 04:54:12;;;;;;;;;;;;;;;13.82;100.00;100455.56;4464286;32;35263;-77
2022/10/31 04:56:59;;;;;;;;;;;;;;;13.19;100.00;100451.75;4465089;32;34963;-77
2022/10/31 04:59:47;;;;;;;;;;;;;;;13.60;100.00;100450.84;4454051;32;35000;-76
2022/10/31 05:02:41;;;;;;;;;;;;;;;12.95;100.00;100457.47;4465507;32;36111;-76
2022/10/31 05:05:32;;;;;;;;;;;;;;;12.27;100.00;100464.56;4465486;32;34911;-76
2022/10/31 05:08:18;;;;;;;;;;;;;;;12.36;100.00;100465.50;4450912;32;32512;-76
2022/10/31 05:11:05;;;;;;;;;;;;;;;12.91;100.00;100462.75;4453459;32;35949;-76
2022/10/31 05:13:52;;;;;;;;;;;;;;;13.32;100.00;100463.84;4453027;32;35704;-76
2022/10/31 05:16:39;;;;;;;;;;;;;;;13.63;100.00;100451.03;4465371;32;34868;-76
2022/10/31 05:19:28;;;;;;;;;;;;;;;13.87;100.00;100459.00;4448902;32;34089;-76
2022/10/31 05:22:17;;;;;;;;;;;;;;;13.87;100.00;100459.00;4449581;32;35781;-76
2022/10/31 05:25:04;;;;;;;;;;;;;;;14.08;100.00;100447.47;4427372;32;35227;-76
2022/10/31 05:27:54;;;;;;;;;;;;;;;13.49;100.00;100458.53;4437155;32;34810;-76
2022/10/31 05:30:41;;;;;;;;;;;;;;;12.36;100.00;100466.31;4437640;32;34059;-76
2022/10/31 05:33:28;;;;;;;;;;;;;;;12.17;100.00;100467.47;4448525;32;35785;-76
2022/10/31 05:36:22;;;;;;;;;;;;;;;13.44;100.00;100453.16;4449533;32;35235;-76
2022/10/31 05:39:09;;;;;;;;;;;;;;;13.29;100.00;100451.56;4437710;32;34890;-76
2022/10/31 05:41:57;;;;;;;;;;;;;;;13.77;100.00;100442.69;4449228;32;34044;-76
2022/10/31 05:44:45;;;;;;;;;;;;;;;12.59;100.00;100456.25;4448034;32;35061;-76
2022/10/31 05:47:31;;;;;;;;;;;;;;;12.51;100.00;100478.13;4433634;32;35149;-77
2022/10/31 05:50:22;;;;;;;;;;;;;;;13.40;100.00;100463.94;4437283;32;34692;-76
2022/10/31 05:53:11;;;;;;;;;;;;;;;13.49;100.00;100472.31;4449532;32;33593;-76
2022/10/31 05:56:02;;;;;;;;;;;;;;;13.42;100.00;100466.41;4442320;32;34950;-76
2022/10/31 05:58:52;;;;;;;;;;;;;;;13.60;100.00;100478.38;4431706;32;35130;-77
2022/10/31 06:01:40;;;;;;;;;;;;;;;13.71;100.00;100475.06;4447889;32;35266;-76
2022/10/31 06:04:31;;;;;;;;;;;;;;;13.48;100.00;100479.72;4447024;32;33024;-76
2022/10/31 06:07:18;;;;;;;;;;;;;;;13.79;100.00;100484.53;4437904;32;34978;-76
2022/10/31 06:10:08;;;;;;;;;;;;;;;13.84;100.00;100473.41;4445673;32;34343;-77
2022/10/31 06:12:55;;;;;;;;;;;;;;;13.70;100.00;100480.91;4448385;32;34853;-77
2022/10/31 06:15:42;;;;;;;;;;;;;;;14.16;100.00;100477.03;4401301;32;1163745;-77
2022/10/31 06:18:35;;;;;;;;;;;;;;;13.81;100.00;100479.53;4459759;32;34981;-77
2022/10/31 06:21:22;;;;;;;;;;;;;;;13.06;100.00;100494.63;4463427;32;33870;-77
2022/10/31 06:24:16;;;;;;;;;;;;;;;13.91;100.00;100484.78;4449455;32;34807;-76
2022/10/31 06:27:07;;;;;;;;;;;;;;;12.78;100.00;100493.84;4464589;32;33662;-76
2022/10/31 06:29:55;;;;;;;;;;;;;;;13.60;100.00;100483.88;4460752;32;34970;-77
2022/10/31 06:32:46;;;;;;;;;;;;;;;13.46;100.00;100472.91;4447469;32;34773;-76
2022/10/31 06:35:33;;;;;;;;;;;;;;;13.28;100.00;100483.75;4437495;32;34921;-77
2022/10/31 06:38:22;;;;;;;;;;;;;;;13.46;100.00;100484.75;4434075;32;33541;-76
2022/10/31 06:41:16;;;;;;;;;;;;;;;13.17;100.00;100479.53;4425339;32;35595;-76
2022/10/31 06:44:11;;;;;;;;;;;;;;;13.26;100.00;100479.66;4454567;32;36190;-76
2022/10/31 06:47:01;;;;;;;;;;;;;;;13.34;100.00;100487.19;4462778;32;35188;-76
2022/10/31 06:49:57;;;;;;;;;;;;;;;13.89;100.00;100489.81;4464497;32;34261;-76
2022/10/31 06:52:47;;;;;;;;;;;;;;;13.58;100.00;100495.22;4463043;32;34988;-76
2022/10/31 06:55:39;;;;;;;;;;;;;;;13.13;100.00;100508.00;4438192;32;34043;-76
2022/10/31 06:58:35;;;;;;;;;;;;;;;13.76;100.00;100506.38;4436176;32;35692;-76
2022/10/31 07:01:26;;;;;;;;;;;;;;;13.38;100.00;100502.00;4443733;32;34562;-76
2022/10/31 07:04:25;;;;;;;;;;;;;;;13.61;100.00;100500.09;4447331;32;35765;-76
2022/10/31 07:07:13;;;;;;;;;;;;;;;13.47;100.00;100507.59;4437835;32;35288;-77
2022/10/31 07:10:05;;;;;;;;;;;;;;;13.38;100.00;100515.75;4450900;32;35541;-77
2022/10/31 07:12:58;;;;;;;;;;;;;;;13.86;100.00;100515.22;4450180;32;34026;-77
2022/10/31 07:16:02;;;;;;;;;;;;;;;13.49;100.00;100513.59;4429732;32;35031;-76
2022/10/31 07:18:50;;;;;;;;;;;;;;;13.56;100.00;100515.91;4451807;32;35990;-77
2022/10/31 07:21:38;;;;;;;;;;;;;;;13.96;100.00;100514.16;4460638;32;34830;-76
2022/10/31 07:24:26;;;;;;;;;;;;;;;13.78;100.00;100523.41;4458831;32;33865;-77
2022/10/31 07:27:16;;;;;;;;;;;;;;;13.57;100.00;100525.81;4438587;32;34449;-77
2022/10/31 07:30:04;;;;;;;;;;;;;;;14.20;100.00;100535.06;4457490;32;35068;-76
2022/10/31 07:32:57;;;;;;;;;;;;;;;14.03;100.00;100531.09;4436832;32;34379;-77
2022/10/31 07:35:45;;;;;;;;;;;;;;;14.22;100.00;100533.62;4447014;32;32458;-76
2022/10/31 07:38:37;;;;;;;;;;;;;;;14.07;100.00;100531.25;4449162;32;34460;-76
2022/10/31 07:41:29;;;;;;;;;;;;;;;14.17;100.00;100537.34;4452190;32;34893;-77
2022/10/31 07:44:22;;;;;;;;;;;;;;;14.28;100.00;100531.56;4450407;32;34473;-77
2022/10/31 07:47:22;;;;;;;;;;;;;;;14.40;100.00;100529.88;4455655;32;32777;-76
2022/10/31 07:50:21;;;;;;;;;;;;;;;14.19;100.00;100523.25;4447311;32;35565;-77
2022/10/31 07:53:18;;;;;;;;;;;;;;;14.42;100.00;100514.97;4434722;32;35205;-77
2022/10/31 07:56:06;;;;;;;;;;;;;;;13.77;100.00;100517.06;4440049;32;34169;-76
2022/10/31 07:58:59;;;;;;;;;;;;;;;13.78;100.00;100517.91;4449612;32;36378;-76
2022/10/31 08:01:46;;;;;;;;;;;;;;;12.66;100.00;100526.50;4449810;32;34609;-76
2022/10/31 08:04:42;;;;;;;;;;;;;;;13.95;100.00;100527.12;4448994;32;33553;-76
2022/10/31 08:07:37;;;;;;;;;;;;;;;13.21;100.00;100526.56;4451419;32;35780;-76
2022/10/31 08:13:22;;;;;;;;;;;;;;;12.69;100.00;100537.72;4439905;32;34531;-76
2022/10/31 08:19:12;;;;;;;;;;;;;;;13.93;100.00;100537.63;4450176;32;34475;-76
2022/10/31 08:22:00;;;;;;;;;;;;;;;14.16;100.00;100538.47;4448132;32;33820;-76
2022/10/31 08:28:05;;;;;;;;;;;;;;;12.22;100.00;100536.09;4451057;32;36236;-75
2022/10/31 08:30:54;;;;;;;;;;;;;;;13.58;100.00;100538.47;4439819;32;33157;-76
2022/10/31 08:33:46;;;;;;;;;;;;;;;13.42;100.00;100544.28;4449715;32;34846;-76
2022/10/31 08:36:37;;;;;;;;;;;;;;;13.80;100.00;100532.16;4449187;32;35093;-77
2022/10/31 08:39:33;;;;;;;;;;;;;;;12.76;100.00;100540.88;4440351;32;34330;-76
2022/10/31 08:42:24;;;;;;;;;;;;;;;13.12;100.00;100531.13;4449847;32;34677;-77
2022/10/31 08:45:22;;;;;;;;;;;;;;;13.58;100.00;100531.00;4438451;32;32996;-77
2022/10/31 08:48:12;;;;;;;;;;;;;;;14.05;100.00;100533.50;4447948;32;34271;-77
2022/10/31 08:51:01;;;;;;;;;;;;;;;14.07;100.00;100531.25;4448544;32;35001;-77
2022/10/31 08:53:50;;;;;;;;;;;;;;;14.26;100.00;100531.06;4447964;32;35346;-76
2022/10/31 08:56:48;;;;;;;;;;;;;;;14.32;100.00;100543.62;4437587;32;34721;-76
2022/10/31 08:59:48;;;;;;;;;;;;;;;14.60;100.00;100536.84;4449244;32;35015;-77
2022/10/31 09:02:38;;;;;;;;;;;;;;;14.58;100.00;100536.34;4448979;32;36564;-76
2022/10/31 09:05:25;;;;;;;;;;;;;;;14.73;100.00;100540.62;4439029;32;34800;-76
2022/10/31 09:08:18;;;;;;;;;;;;;;;14.39;100.00;100544.78;4449700;32;34178;-76
2022/10/31 09:11:08;;;;;;;;;;;;;;;14.44;100.00;100540.28;4438250;32;35898;-77
2022/10/31 09:13:59;;;;;;;;;;;;;;;14.57;100.00;100544.91;4448623;32;35789;-76
2022/10/31 09:16:59;;;;;;;;;;;;;;;14.62;100.00;100547.53;4441745;32;33271;-76
2022/10/31 09:19:56;;;;;;;;;;;;;;;14.67;100.00;100541.09;4440341;32;34105;-77
2022/10/31 09:22:54;;;;;;;;;;;;;;;14.82;100.00;100537.91;4447362;32;34738;-83
2022/10/31 09:25:46;;;;;;;;;;;;;;;14.72;100.00;100541.78;4458305;32;35969;-82
2022/10/31 09:28:46;;;;;;;;;;;;;;;14.25;100.00;100548.75;4460000;32;34485;-78
2022/10/31 09:31:38;;;;;;;;;;;;;;;14.85;100.00;100548.31;4470496;31;33832;-78
2022/10/31 09:34:32;;;;;;;;;;;;;;;14.85;100.00;100546.34;4459377;31;35484;-77
2022/10/31 09:37:18;;;;;;;;;;;;;;;14.68;100.00;100545.47;4457423;32;34862;-77
2022/10/31 09:40:12;;;;;;;;;;;;;;;14.15;100.00;100552.56;4469625;32;33423;-77
2022/10/31 09:43:09;;;;;;;;;;;;;;;14.39;100.00;100549.47;4469781;32;34988;-77
2022/10/31 09:46:01;;;;;;;;;;;;;;;14.76;100.00;100541.94;4470800;32;35538;-77
2022/10/31 09:48:58;;;;;;;;;;;;;;;14.32;100.00;100555.44;4473426;32;35252;-77
2022/10/31 09:52:01;;;;;;;;;;;;;;;14.73;100.00;100550.84;4469480;32;35403;-78
2022/10/31 09:54:52;;;;;;;;;;;;;;;14.77;100.00;100549.91;4469876;32;34113;-78
2022/10/31 09:57:43;;;;;;;;;;;;;;;14.60;100.00;100552.59;4481171;32;35024;-77
2022/10/31 10:00:33;;;;;;;;;;;;;;;14.66;100.00;100543.03;4469173;32;36075;-78
2022/10/31 10:03:31;;;;;;;;;;;;;;;14.84;100.00;100544.75;4477254;31;35620;-77
2022/10/31 10:06:23;;;;;;;;;;;;;;;14.67;100.00;100536.38;4481062;32;34045;-78
2022/10/31 10:09:25;;;;;;;;;;;;;;;14.78;100.00;100540.50;4461528;32;35786;-77
2022/10/31 10:12:26;;;;;;;;;;;;;;;14.61;100.00;100538.47;4469141;32;36034;-77
2022/10/31 10:15:23;;;;;;;;;;;;;;;14.61;100.00;100540.41;4480866;32;34531;-77
2022/10/31 10:18:28;;;;;;;;;;;;;;;14.76;100.00;100540.00;4469949;32;33624;-77
2022/10/31 10:21:28;;;;;;;;;;;;;;;14.74;100.00;100545.03;4480083;31;34874;-77
2022/10/31 10:24:26;;;;;;;;;;;;;;;14.67;100.00;100543.84;4468935;32;34869;-77
2022/10/31 10:27:13;;;;;;;;;;;;;;;14.90;100.00;100530.81;4468921;32;35326;-76
2022/10/31 10:30:17;;;;;;;;;;;;;;;14.24;100.00;100539.66;4468049;32;34844;-76
2022/10/31 10:33:08;;;;;;;;;;;;;;;14.04;100.00;100532.69;4469407;32;34779;-76
2022/10/31 10:36:00;;;;;;;;;;;;;;;14.29;100.00;100534.03;4471760;32;34748;-76
2022/10/31 10:38:51;;;;;;;;;;;;;;;13.75;100.00;100530.34;4471336;32;35859;-76
2022/10/31 10:41:44;;;;;;;;;;;;;;;14.51;100.00;100529.59;4460596;32;34315;-76
2022/10/31 10:47:54;;;;;;;;;;;;;;;14.64;100.00;100525.97;4482922;32;35782;-76
2022/10/31 10:50:47;;;;;;;;;;;;;;;14.56;100.00;100522.03;4460538;32;35432;-76
2022/10/31 10:53:36;;;;;;;;;;;;;;;14.43;100.00;100522.09;4482086;32;35027;-76
2022/10/31 10:56:51;;;;;;;;;;;;;;;14.85;100.00;100518.75;4473217;32;35042;-81
2022/10/31 10:59:45;;;;;;;;;;;;;;;14.98;100.00;100532.78;4463064;31;35010;-81
2022/10/31 11:02:33;;;;;;;;;;;;;;;14.67;100.00;100528.09;4479006;32;34954;-81
2022/10/31 11:05:24;;;;;;;;;;;;;;;15.04;100.00;100526.00;4469088;32;33827;-81
2022/10/31 11:08:26;;;;;;;;;;;;;;;14.75;100.00;100524.59;4477410;32;34931;-80
2022/10/31 11:11:18;;;;;;;;;;;;;;;14.98;100.00;100522.56;4454917;32;35335;-79
2022/10/31 11:14:18;;;;;;;;;;;;;;;14.87;100.00;100520.41;4456057;32;35717;-81
2022/10/31 11:17:10;;;;;;;;;;;;;;;15.09;100.00;100523.09;4465128;32;34814;-82
2022/10/31 11:20:05;;;;;;;;;;;;;;;14.91;100.00;100516.69;4469254;32;33638;-82
2022/10/31 11:23:01;;;;;;;;;;;;;;;14.76;100.00;100509.66;4468266;31;35115;-81
2022/10/31 11:25:50;;;;;;;;;;;;;;;14.93;100.00;100508.09;4469061;32;34941;-82
2022/10/31 11:28:39;;;;;;;;;;;;;;;14.65;100.00;100507.50;4478297;31;34084;-82
2022/10/31 11:31:32;;;;;;;;;;;;;;;14.72;100.00;100507.84;4465576;32;35558;-81
2022/10/31 11:34:42;;;;;;;;;;;;;;;14.60;100.00;100511.22;4478327;31;34580;-82
2022/10/31 11:37:30;;;;;;;;;;;;;;;14.92;100.00;100500.97;4479232;31;35864;-82
2022/10/31 11:40:24;;;;;;;;;;;;;;;14.26;100.00;100500.75;4467413;31;34194;-82
2022/10/31 11:43:13;;;;;;;;;;;;;;;14.39;100.00;100510.88;4469313;32;36486;-82
2022/10/31 11:49:19;;;;;;;;;;;;;;;15.00;100.00;100497.41;4468354;32;35697;-81
2022/10/31 11:52:19;;;;;;;;;;;;;;;14.90;100.00;100498.50;4480713;31;34911;-82
2022/10/31 11:55:14;;;;;;;;;;;;;;;14.75;100.00;100498.94;4469066;32;35798;-82
2022/10/31 11:58:02;;;;;;;;;;;;;;;14.64;100.00;100505.88;4479300;31;33756;-82
2022/10/31 12:00:58;;;;;;;;;;;;;;;14.26;100.00;100501.56;4478006;31;34765;-81
2022/10/31 12:03:50;;;;;;;;;;;;;;;14.75;100.00;100508.03;4452732;31;34084;-82
2022/10/31 12:06:48;;;;;;;;;;;;;;;14.92;100.00;100501.78;4480631;32;34991;-81
2022/10/31 12:09:38;;;;;;;;;;;;;;;14.79;100.00;100503.50;4468791;32;35262;-82
2022/10/31 12:12:28;;;;;;;;;;;;;;;14.92;100.00;100501.78;4468280;32;34477;-81
2022/10/31 12:15:31;;;;;;;;;;;;;;;14.39;100.00;100500.66;4481936;32;33754;-82
2022/10/31 12:18:29;;;;;;;;;;;;;;;14.69;100.00;100500.22;4461963;32;35871;-82
2022/10/31 12:21:23;;;;;;;;;;;;;;;14.82;100.00;100505.63;4465066;32;34993;-82
2022/10/31 12:24:26;;;;;;;;;;;;;;;15.07;100.00;100500.50;4463828;32;34982;-82
2022/10/31 12:27:33;;;;;;;;;;;;;;;14.75;100.00;100502.50;4462686;32;35023;-80
2022/10/31 12:30:30;;;;;;;;;;;;;;;14.61;100.00;100496.28;4462646;32;34678;-82
2022/10/31 12:33:26;;;;;;;;;;;;;;;14.87;100.00;100490.88;4463187;32;36115;-82
2022/10/31 12:36:19;;;;;;;;;;;;;;;14.74;100.00;100492.62;4464217;32;35099;-82
2022/10/31 12:39:14;;;;;;;;;;;;;;;14.74;100.00;100495.38;4454778;32;34327;-82
2022/10/31 12:42:22;;;;;;;;;;;;;;;14.08;100.00;100500.63;4464554;32;36440;-82
2022/10/31 12:45:13;;;;;;;;;;;;;;;14.17;100.00;100492.41;4461436;32;35938;-82
2022/10/31 12:48:05;;;;;;;;;;;;;;;14.82;100.00;100496.53;4464684;32;34868;-82
2022/10/31 12:51:10;;;;;;;;;;;;;;;14.99;100.00;100490.25;4460911;32;34156;-82
2022/10/31 12:54:17;;;;;;;;;;;;;;;14.77;100.00;100489.22;4464610;32;35115;-82
2022/10/31 12:57:15;;;;;;;;;;;;;;;14.30;100.00;100491.53;4454262;32;35961;-82
2022/10/31 13:00:05;;;;;;;;;;;;;;;14.43;100.00;100489.00;4456981;32;35767;-81
2022/10/31 13:03:00;;;;;;;;;;;;;;;14.60;100.00;100491.91;4448092;32;34062;-82
2022/10/31 13:05:56;;;;;;;;;;;;;;;14.24;100.00;100490.03;4465382;32;35026;-82
2022/10/31 13:12:02;;;;;;;;;;;;;;;14.29;100.00;100487.16;4454722;32;35348;-82
2022/10/31 13:14:53;;;;;;;;;;;;;;;14.68;100.00;100484.78;4453210;32;34059;-82
2022/10/31 13:17:42;;;;;;;;;;;;;;;13.89;100.00;100480.75;4452536;32;34952;-82
2022/10/31 13:20:32;;;;;;;;;;;;;;;14.73;100.00;100482.69;4451144;32;35260;-82
2022/10/31 13:23:29;;;;;;;;;;;;;;;14.24;100.00;100480.97;4455022;32;34328;-82
2022/10/31 13:26:42;;;;;;;;;;;;;;;14.31;100.00;100484.06;4455090;32;34083;-82
2022/10/31 13:29:34;;;;;;;;;;;;;;;14.82;100.00;100483.53;4440808;32;34999;-80
2022/10/31 13:32:23;;;;;;;;;;;;;;;14.61;100.00;100490.75;4454096;32;35274;-82
2022/10/31 13:35:15;;;;;;;;;;;;;;;14.72;100.00;100481.09;4452994;32;33868;-82
2022/10/31 13:38:12;;;;;;;;;;;;;;;14.75;100.00;100477.69;4464730;32;34287;-82
2022/10/31 13:41:08;;;;;;;;;;;;;;;14.61;100.00;100475.03;4453710;32;34889;-82
2022/10/31 13:44:25;;;;;;;;;;;;;;;14.64;100.00;100478.28;4463215;32;34885;-82
2022/10/31 13:47:21;;;;;;;;;;;;;;;14.74;100.00;100476.06;4464521;32;34936;-82
2022/10/31 13:53:19;;;;;;;;;;;;;;;14.17;100.00;100476.72;4465314;32;35022;-82
2022/10/31 13:56:08;;;;;;;;;;;;;;;14.58;100.00;100478.41;4443512;32;36223;-82
2022/10/31 13:58:59;;;;;;;;;;;;;;;14.50;100.00;100473.63;4462355;32;36112;-81
2022/10/31 14:05:00;;;;;;;;;;;;;;;14.27;100.00;100472.06;4451823;32;35779;-82
2022/10/31 14:07:47;;;;;;;;;;;;;;;14.42;100.00;100470.84;4459147;32;34508;-82
2022/10/31 14:10:37;;;;;;;;;;;;;;;14.04;100.00;100476.78;4452038;32;35657;-82
2022/10/31 14:13:34;;;;;;;;;;;;;;;14.53;100.00;100472.22;4453609;32;33685;-82
2022/10/31 14:16:25;;;;;;;;;;;;;;;14.69;100.00;100469.88;4453610;32;36019;-82
2022/10/31 14:19:16;;;;;;;;;;;;;;;14.50;100.00;100464.56;4453220;32;36179;-83
2022/10/31 14:22:19;;;;;;;;;;;;;;;14.36;100.00;100462.69;4451841;32;35201;-83
2022/10/31 14:25:28;;;;;;;;;;;;;;;14.30;100.00;100461.22;4453167;32;34819;-82
2022/10/31 14:28:33;;;;;;;;;;;;;;;14.18;100.00;100472.00;4462388;32;34516;-83
2022/10/31 14:31:26;;;;;;;;;;;;;;;14.48;100.00;100470.38;4450597;32;35563;-83
2022/10/31 14:34:20;;;;;;;;;;;;;;;14.20;100.00;100469.72;4463250;32;35148;-82
2022/10/31 14:37:28;;;;;;;;;;;;;;;14.36;100.00;100465.47;4452523;32;34227;-82
2022/10/31 14:40:21;;;;;;;;;;;;;;;14.00;100.00;100470.25;4447929;32;35708;-82
2022/10/31 14:43:47;;;;;;;;;;;;;;;14.48;100.00;100475.09;4452875;32;36211;-83
2022/10/31 14:50:01;;;;;;;;;;;;;;;13.88;100.00;100476.34;4449550;32;33966;-83
2022/10/31 14:52:52;;;;;;;;;;;;;;;14.05;100.00;100478.41;4463865;32;33774;-81
2022/10/31 14:58:42;;;;;;;;;;;;;;;14.16;100.00;100472.31;4452136;32;33656;-82
2022/10/31 15:01:40;;;;;;;;;;;;;;;14.30;100.00;100471.44;4463314;32;34944;-82